createdAt,value
2019-05-10T00:01:26.021Z,90.29
2019-05-10T00:04:16.003Z,90.76
2019-05-10T00:07:05.475Z,90.40
2019-05-10T00:09:36.412Z,90.20
2019-05-10T00:12:15.754Z,90.72
2019-05-10T00:14:49.045Z,89.85
2019-05-10T00:17:20.815Z,90.30
2019-05-10T00:19:52.764Z,89.99
2019-05-10T00:22:24.417Z,89.97
2019-05-10T00:25:03.732Z,90.22
2019-05-10T00:27:29.675Z,90.46
2019-05-10T00:30:01.328Z,89.76
2019-05-10T00:32:34.427Z,89.48
2019-05-10T00:35:06.945Z,89.44
2019-05-10T00:37:38.244Z,90.02
2019-05-10T00:40:09.634Z,90.45
2019-05-10T00:42:40.937Z,90.94
2019-05-10T00:45:12.387Z,90.97
2019-05-10T00:47:43.738Z,90.18
2019-05-10T00:50:15.501Z,89.78
2019-05-10T00:52:47.355Z,89.58
2019-05-10T00:55:19.603Z,89.50
2019-05-10T00:57:51.176Z,89.86
2019-05-10T01:00:23.032Z,90.73
2019-05-10T01:02:54.636Z,89.73
2019-05-10T01:05:26.220Z,90.01
2019-05-10T01:07:57.606Z,91.01
2019-05-10T01:10:29.357Z,90.23
2019-05-10T01:13:01.007Z,90.14
2019-05-10T01:15:32.567Z,90.26
2019-05-10T01:18:03.947Z,91.09
2019-05-10T01:20:35.362Z,91.35
2019-05-10T01:23:07.731Z,90.78
2019-05-10T01:25:39.391Z,90.99
2019-05-10T01:28:10.948Z,90.74
2019-05-10T01:30:43.037Z,90.34
2019-05-10T01:33:14.870Z,91.38
2019-05-10T01:35:46.428Z,90.88
2019-05-10T01:38:18.078Z,92.47
2019-05-10T01:40:49.832Z,91.90
2019-05-10T01:43:21.689Z,90.95
2019-05-10T01:45:53.445Z,91.29
2019-05-10T01:48:24.800Z,91.16
2019-05-10T01:50:56.238Z,91.49
2019-05-10T01:53:28.591Z,92.11
2019-05-10T01:55:59.951Z,91.74
2019-05-10T01:58:31.223Z,91.18
2019-05-10T02:01:02.663Z,90.75
2019-05-10T02:03:34.116Z,90.66
2019-05-10T02:06:06.277Z,90.80
2019-05-10T02:08:37.838Z,91.49
2019-05-10T02:11:09.660Z,92.31
2019-05-10T02:13:40.994Z,92.08
2019-05-10T02:16:12.495Z,92.75
2019-05-10T02:18:43.805Z,93.07
2019-05-10T02:21:17.758Z,94.04
2019-05-10T02:23:49.048Z,93.80
2019-05-10T02:26:20.404Z,95.01
2019-05-10T02:28:51.716Z,94.12
2019-05-10T02:31:23.255Z,93.03
2019-05-10T02:33:55.003Z,91.82
2019-05-10T02:36:26.551Z,91.10
2019-05-10T02:38:58.206Z,90.52
2019-05-10T02:41:30.984Z,90.14
2019-05-10T02:44:02.745Z,90.60
2019-05-10T02:46:36.140Z,90.01
2019-05-10T02:49:07.421Z,89.79
2019-05-10T02:51:38.841Z,89.95
2019-05-10T02:54:10.316Z,89.84
2019-05-10T02:56:41.951Z,90.24
2019-05-10T02:59:13.812Z,89.72
2019-05-10T03:01:46.277Z,89.95
2019-05-10T03:04:18.240Z,89.88
2019-05-10T03:06:49.895Z,89.83
2019-05-10T03:09:21.459Z,89.49
2019-05-10T03:11:53.211Z,89.96
2019-05-10T03:14:24.972Z,90.01
2019-05-10T03:16:56.412Z,90.33
2019-05-10T03:19:27.786Z,90.09
2019-05-10T03:22:06.923Z,89.86
2019-05-10T03:24:38.661Z,89.09
2019-05-10T03:27:10.367Z,89.64
2019-05-10T03:29:41.695Z,89.60
2019-05-10T03:32:13.015Z,88.32
2019-05-10T03:34:44.406Z,88.12
2019-05-10T03:37:15.915Z,87.89
2019-05-10T03:39:47.196Z,88.38
2019-05-10T03:42:18.617Z,86.94
2019-05-10T03:44:49.983Z,87.56
2019-05-10T03:47:21.369Z,87.49
2019-05-10T03:49:52.777Z,88.31
2019-05-10T03:52:24.160Z,86.19
2019-05-10T03:54:55.482Z,86.04
2019-05-10T03:57:28.185Z,86.71
2019-05-10T03:59:59.633Z,86.39
2019-05-10T04:02:31.181Z,86.63
2019-05-10T04:05:02.975Z,86.04
2019-05-10T04:07:34.529Z,87.42
2019-05-10T04:10:06.479Z,86.04
2019-05-10T04:12:37.996Z,86.33
2019-05-10T04:15:09.461Z,87.22
2019-05-10T04:17:42.522Z,86.76
2019-05-10T04:20:13.712Z,85.85
2019-05-10T04:22:45.388Z,85.33
2019-05-10T04:25:18.983Z,85.13
2019-05-10T04:27:53.907Z,86.49
2019-05-10T04:30:25.358Z,84.69
2019-05-10T04:32:56.853Z,83.49
2019-05-10T04:35:28.196Z,83.17
2019-05-10T04:37:59.961Z,82.74
2019-05-10T04:40:31.411Z,83.25
2019-05-10T04:43:02.869Z,82.38
2019-05-10T04:45:34.252Z,80.56
2019-05-10T04:48:05.659Z,81.63
2019-05-10T04:50:37.142Z,80.80
2019-05-10T04:53:08.933Z,80.40
2019-05-10T04:55:40.431Z,79.45
2019-05-10T04:58:12.116Z,79.67
2019-05-10T05:00:43.627Z,81.10
2019-05-10T05:03:15.338Z,80.10
2019-05-10T05:05:47.220Z,81.16
2019-05-10T05:08:18.989Z,82.19
2019-05-10T05:10:50.408Z,82.06
2019-05-10T05:13:22.045Z,82.17
2019-05-10T05:15:54.541Z,81.51
2019-05-10T05:18:26.238Z,80.33
2019-05-10T05:20:58.083Z,82.21
2019-05-10T05:23:29.680Z,80.43
2019-05-10T05:26:01.165Z,78.57
2019-05-10T05:28:32.713Z,77.71
2019-05-10T05:31:04.171Z,78.85
2019-05-10T05:33:35.708Z,78.89
2019-05-10T05:36:07.265Z,77.77
2019-05-10T05:38:40.649Z,76.55
2019-05-10T05:41:12.007Z,77.24
2019-05-10T05:43:46.364Z,77.61
2019-05-10T05:46:17.768Z,75.00
2019-05-10T05:48:51.419Z,74.55
2019-05-10T05:51:22.595Z,74.11
2019-05-10T05:53:54.441Z,74.11
2019-05-10T05:56:25.829Z,73.67
2019-05-10T05:58:57.296Z,73.38
2019-05-10T06:01:29.571Z,72.83
2019-05-10T06:04:06.302Z,72.58
2019-05-10T06:06:36.652Z,73.38
2019-05-10T06:09:08.600Z,72.44
2019-05-10T06:11:40.128Z,72.05
2019-05-10T06:14:12.843Z,69.95
2019-05-10T06:16:50.409Z,68.96
2019-05-10T06:19:20.475Z,68.45
2019-05-10T06:21:51.215Z,67.60
2019-05-10T06:24:22.680Z,67.41
2019-05-10T06:26:58.214Z,65.80
2019-05-10T06:29:27.394Z,66.78
2019-05-10T06:31:59.116Z,67.03
2019-05-10T06:34:37.942Z,66.22
2019-05-10T06:37:04.750Z,63.70
2019-05-10T06:39:37.295Z,60.23
2019-05-10T06:42:08.700Z,60.47
2019-05-10T06:44:40.321Z,60.66
2019-05-10T06:47:11.726Z,60.52
2019-05-10T06:49:50.764Z,59.64
2019-05-10T06:52:21.761Z,59.20
2019-05-10T06:54:52.139Z,56.18
2019-05-10T06:57:23.483Z,60.26
2019-05-10T06:59:57.020Z,60.75
2019-05-10T07:02:32.318Z,59.99
2019-05-10T07:05:01.270Z,57.15
2019-05-10T07:07:43.983Z,58.38
2019-05-10T07:10:15.712Z,57.21
2019-05-10T07:12:40.960Z,56.77
2019-05-10T07:15:12.478Z,57.33
2019-05-10T07:17:47.164Z,58.05
2019-05-10T07:20:17.294Z,58.14
2019-05-10T07:22:48.692Z,55.08
2019-05-10T07:25:20.261Z,53.15
2019-05-10T07:27:52.063Z,50.92
2019-05-10T07:30:32.161Z,48.92
2019-05-10T07:33:03.507Z,46.29
2019-05-10T07:35:36.736Z,46.65
2019-05-10T07:38:08.229Z,43.69
2019-05-10T07:40:39.594Z,44.05
2019-05-10T07:43:10.876Z,44.10
2019-05-10T07:45:42.412Z,41.70
2019-05-10T07:48:13.810Z,39.08
2019-05-10T07:50:49.134Z,39.27
2019-05-10T07:53:22.768Z,37.06
2019-05-10T07:55:51.930Z,35.27
2019-05-10T07:58:23.320Z,36.21
2019-05-10T08:00:56.160Z,38.26
2019-05-10T08:03:29.658Z,34.33
2019-05-10T08:06:03.393Z,32.94
2019-05-10T08:08:34.876Z,36.41
2019-05-10T08:11:08.645Z,38.06
2019-05-10T08:13:40.177Z,36.09
2019-05-10T08:16:18.950Z,33.86
2019-05-10T08:18:44.785Z,33.77
2019-05-10T08:21:23.940Z,34.62
2019-05-10T08:23:49.099Z,34.06
2019-05-10T08:26:24.581Z,33.41
2019-05-10T08:28:53.099Z,31.00
2019-05-10T08:31:26.339Z,31.92
2019-05-10T08:33:59.043Z,31.92
2019-05-10T08:36:32.231Z,31.57
2019-05-10T08:39:10.442Z,37.59
2019-05-10T08:41:38.639Z,43.74
2019-05-10T08:44:16.605Z,45.54
2019-05-10T08:46:44.400Z,47.02
2019-05-10T08:49:22.115Z,46.78
2019-05-10T08:51:52.056Z,45.45
2019-05-10T08:54:25.904Z,46.13
2019-05-10T08:57:01.977Z,47.33
2019-05-10T08:59:30.866Z,47.76
2019-05-10T09:02:05.153Z,48.06
2019-05-10T09:04:43.630Z,43.54
2019-05-10T09:07:11.866Z,41.13
2019-05-10T09:09:49.758Z,41.70
2019-05-10T09:12:18.690Z,41.92
2019-05-10T09:14:57.509Z,42.99
2019-05-10T09:17:28.223Z,43.32
2019-05-10T09:19:58.492Z,43.82
2019-05-10T09:22:33.938Z,45.80
2019-05-10T09:25:06.911Z,44.11
2019-05-10T09:27:39.026Z,47.91
2019-05-10T09:30:14.073Z,47.58
2019-05-10T09:32:45.043Z,48.97
2019-05-10T09:35:17.182Z,49.26
2019-05-10T09:37:56.728Z,49.35
2019-05-10T09:40:22.390Z,49.65
2019-05-10T09:42:54.260Z,50.36
2019-05-10T09:45:25.734Z,52.69
2019-05-10T09:47:57.309Z,53.07
2019-05-10T09:50:30.470Z,51.49
2019-05-10T09:53:02.143Z,47.50
2019-05-10T09:55:33.610Z,46.86
2019-05-10T09:58:05.335Z,48.81
2019-05-10T10:00:37.973Z,49.35
2019-05-10T10:03:12.745Z,48.24
2019-05-10T10:05:48.064Z,49.75
2019-05-10T10:08:18.852Z,50.06
2019-05-10T10:10:50.695Z,49.52
2019-05-10T10:13:38.924Z,50.41
2019-05-10T10:15:57.978Z,52.00
2019-05-10T10:18:29.014Z,53.10
2019-05-10T10:21:01.914Z,55.29
2019-05-10T10:23:37.234Z,54.71
2019-05-10T10:26:07.541Z,54.51
2019-05-10T10:28:39.846Z,52.00
2019-05-10T10:31:26.004Z,52.34
2019-05-10T10:33:56.947Z,53.66
2019-05-10T10:36:20.037Z,54.10
2019-05-10T10:38:51.715Z,53.98
2019-05-10T10:41:31.304Z,54.83
2019-05-10T10:43:58.306Z,55.03
2019-05-10T10:46:29.556Z,52.83
2019-05-10T10:49:01.093Z,53.27
2019-05-10T10:51:34.538Z,53.86
2019-05-10T10:54:07.417Z,53.72
2019-05-10T10:56:39.124Z,54.25
2019-05-10T10:59:10.620Z,53.44
2019-05-10T11:01:50.007Z,52.33
2019-05-10T11:04:16.414Z,53.41
2019-05-10T11:06:48.026Z,50.04
2019-05-10T11:09:20.692Z,50.75
2019-05-10T11:11:52.293Z,47.96
2019-05-10T11:14:23.883Z,49.46
2019-05-10T11:16:57.110Z,46.94
2019-05-10T11:19:28.969Z,47.46
2019-05-10T11:22:02.231Z,44.57
2019-05-10T11:24:33.855Z,45.14
2019-05-10T11:27:07.191Z,47.33
2019-05-10T11:29:38.480Z,45.89
2019-05-10T11:32:15.779Z,47.81
2019-05-10T11:34:42.996Z,48.87
2019-05-10T11:37:16.149Z,49.72
2019-05-10T11:39:47.878Z,50.43
2019-05-10T11:42:21.198Z,51.97
2019-05-10T11:44:54.565Z,51.69
2019-05-10T11:47:27.309Z,51.11
2019-05-10T11:50:05.808Z,49.60
2019-05-10T11:52:34.740Z,49.76
2019-05-10T11:55:05.365Z,50.44
2019-05-10T11:57:43.255Z,49.64
2019-05-10T12:00:24.288Z,50.65
2019-05-10T12:05:20.529Z,51.37
2019-05-10T12:07:54.141Z,52.19
2019-05-10T12:10:25.532Z,53.27
2019-05-10T12:13:08.620Z,53.21
2019-05-10T12:15:31.592Z,49.69
2019-05-10T12:18:04.714Z,50.09
2019-05-10T12:23:13.386Z,49.98
2019-05-10T12:25:53.131Z,49.65
2019-05-10T12:26:18.021Z,49.31
2019-05-10T12:26:18.785Z,52.15
2019-05-10T12:28:15.430Z,49.73
2019-05-10T12:30:47.548Z,49.17
2019-05-10T12:33:25.098Z,51.09
2019-05-10T12:35:52.277Z,49.79
2019-05-10T12:38:29.158Z,51.65
2019-05-10T12:40:56.808Z,49.96
2019-05-10T12:43:28.214Z,47.92
2019-05-10T12:46:00.041Z,47.82
2019-05-10T12:48:32.781Z,48.38
2019-05-10T12:51:11.558Z,49.18
2019-05-10T12:53:44.600Z,50.14
2019-05-10T12:56:10.685Z,49.40
2019-05-10T12:58:41.966Z,48.79
2019-05-10T13:01:13.378Z,49.29
2019-05-10T13:03:46.413Z,50.17
2019-05-10T13:06:19.791Z,50.49
2019-05-10T13:08:51.047Z,51.34
2019-05-10T13:11:25.494Z,52.01
2019-05-10T13:14:01.077Z,51.45
2019-05-10T13:16:28.885Z,52.58
2019-05-10T13:19:00.114Z,52.57
2019-05-10T13:21:31.547Z,53.17
2019-05-10T13:24:02.796Z,52.18
2019-05-10T13:26:34.296Z,53.16
2019-05-10T13:29:08.159Z,53.22
2019-05-10T13:31:42.696Z,52.25
2019-05-10T13:34:11.875Z,50.94
2019-05-10T13:36:43.482Z,50.51
2019-05-10T13:39:19.055Z,51.99
2019-05-10T13:41:49.123Z,51.22
2019-05-10T13:44:20.719Z,51.92
2019-05-10T13:46:52.587Z,52.43
2019-05-10T13:49:23.905Z,51.40
2019-05-10T13:51:55.580Z,53.21
2019-05-10T13:54:31.292Z,52.66
2019-05-10T13:57:00.749Z,51.78
2019-05-10T13:59:32.851Z,51.16
2019-05-10T14:02:05.436Z,52.69
2019-05-10T14:04:38.743Z,52.31
2019-05-10T14:07:10.249Z,52.26
2019-05-10T14:09:41.971Z,53.15
2019-05-10T14:12:16.320Z,53.14
2019-05-10T14:14:46.958Z,53.26
2019-05-10T14:17:19.717Z,52.70
2019-05-10T14:19:51.020Z,52.58
2019-05-10T14:22:22.711Z,52.38
2019-05-10T14:24:58.870Z,53.18
2019-05-10T14:27:29.874Z,53.01
2019-05-10T14:30:00.407Z,54.16
2019-05-10T14:32:32.030Z,52.61
2019-05-10T14:35:04.168Z,53.54
2019-05-10T14:37:36.700Z,52.71
2019-05-10T14:40:08.316Z,52.71
2019-05-10T14:42:39.918Z,53.33
2019-05-10T14:45:11.282Z,52.60
2019-05-10T14:47:48.279Z,54.05
2019-05-10T14:50:19.400Z,54.68
2019-05-10T14:52:50.749Z,55.80
2019-05-10T14:55:22.518Z,57.45
2019-05-10T14:57:54.419Z,59.10
2019-05-10T15:00:26.113Z,59.90
2019-05-10T15:03:02.148Z,60.80
2019-05-10T15:05:30.767Z,62.05
2019-05-10T15:08:03.207Z,63.18
2019-05-10T15:10:39.435Z,63.00
2019-05-10T15:13:08.117Z,63.98
2019-05-10T15:15:39.826Z,64.54
2019-05-10T15:18:12.198Z,64.05
2019-05-10T15:20:43.658Z,64.23
2019-05-10T15:23:15.218Z,64.30
2019-05-10T15:25:56.479Z,64.80
2019-05-10T15:28:19.717Z,63.48
2019-05-10T15:30:52.625Z,62.88
2019-05-10T15:33:24.367Z,63.20
2019-05-10T15:35:55.848Z,62.70
2019-05-10T15:38:27.402Z,64.01
2019-05-10T15:40:58.925Z,62.95
2019-05-10T15:43:30.942Z,62.27
2019-05-10T15:46:02.586Z,61.89
2019-05-10T15:48:36.649Z,62.27
2019-05-10T15:51:11.354Z,62.66
2019-05-10T15:53:41.038Z,62.35
2019-05-10T15:56:13.895Z,62.56
2019-05-10T15:58:46.460Z,63.46
2019-05-10T16:01:26.321Z,64.69
2019-05-10T16:03:51.311Z,65.22
2019-05-10T16:06:22.769Z,65.47
2019-05-10T16:08:54.738Z,66.79
2019-05-10T16:11:30.136Z,67.79
2019-05-10T16:14:02.046Z,68.26
2019-05-10T16:16:39.668Z,68.49
2019-05-10T16:19:13.047Z,68.97
2019-05-10T16:21:46.764Z,70.08
2019-05-10T16:24:25.553Z,71.84
2019-05-10T16:26:57.975Z,72.28
2019-05-10T16:29:25.139Z,73.42
2019-05-10T16:31:57.541Z,74.10
2019-05-10T16:34:32.440Z,73.85
2019-05-10T16:37:05.097Z,74.88
2019-05-10T16:39:38.782Z,75.61
2019-05-10T16:42:11.140Z,75.70
2019-05-10T16:44:43.597Z,77.41
2019-05-10T16:47:15.833Z,78.39
2019-05-10T16:49:53.378Z,77.97
2019-05-10T16:52:28.507Z,77.02
2019-05-10T16:55:03.818Z,78.21
2019-05-10T16:57:39.712Z,79.02
2019-05-10T17:00:12.721Z,80.34
2019-05-10T17:02:44.484Z,81.61
2019-05-10T17:05:17.429Z,82.62
2019-05-10T17:07:53.653Z,82.56
2019-05-10T17:10:26.983Z,83.41
2019-05-10T17:12:59.603Z,84.40
2019-05-10T17:15:33.901Z,83.70
2019-05-10T17:18:10.427Z,84.23
2019-05-10T17:20:40.206Z,84.97
2019-05-10T17:23:11.679Z,85.08
2019-05-10T17:25:43.702Z,84.62
2019-05-10T17:28:15.282Z,84.43
2019-05-10T17:30:47.121Z,85.66
2019-05-10T17:33:18.842Z,86.58
2019-05-10T17:35:51.359Z,87.36
2019-05-10T17:38:24.111Z,87.44
2019-05-10T17:40:56.843Z,87.54
2019-05-10T17:43:36.983Z,88.51
2019-05-10T17:46:12.831Z,88.69
2019-05-10T17:48:49.399Z,89.12
2019-05-10T17:51:20.745Z,88.33
2019-05-10T17:53:54.986Z,88.86
2019-05-10T17:56:25.917Z,89.63
2019-05-10T17:58:57.359Z,90.01
2019-05-10T18:01:28.971Z,89.56
2019-05-10T18:04:00.674Z,89.72
2019-05-10T18:06:32.804Z,89.56
2019-05-10T18:09:06.945Z,89.75
2019-05-10T18:11:42.792Z,89.22
2019-05-10T18:14:12.442Z,90.04
2019-05-10T18:16:48.305Z,89.88
2019-05-10T18:19:24.217Z,90.11
2019-05-10T18:21:54.873Z,90.63
2019-05-10T18:24:30.047Z,90.74
2019-05-10T18:27:03.086Z,91.25
2019-05-10T18:29:34.612Z,91.40
2019-05-10T18:32:11.026Z,91.56
2019-05-10T18:34:42.252Z,91.82
2019-05-10T18:37:19.766Z,91.99
2019-05-10T18:39:52.873Z,92.13
2019-05-10T18:42:25.659Z,91.99
2019-05-10T18:44:55.013Z,92.16
2019-05-10T18:47:26.714Z,92.46
2019-05-10T18:49:58.096Z,92.40
2019-05-10T18:52:29.979Z,92.37
2019-05-10T18:55:07.905Z,92.48
2019-05-10T18:57:39.530Z,92.60
2019-05-10T19:00:11.708Z,92.53
2019-05-10T19:02:43.333Z,92.46
2019-05-10T19:05:15.203Z,92.38
2019-05-10T19:07:46.845Z,92.37
2019-05-10T19:10:18.822Z,92.09
2019-05-10T19:12:59.917Z,91.91
2019-05-10T19:18:49.173Z,91.84
2019-05-10T19:21:25.007Z,92.16
2019-05-10T19:23:56.139Z,92.57
2019-05-10T19:26:29.462Z,92.08
2019-05-10T19:29:05.332Z,91.94
2019-05-10T19:31:40.400Z,90.50
2019-05-10T19:34:15.291Z,90.19
2019-05-10T19:36:44.356Z,90.32
2019-05-10T19:39:16.003Z,90.72
2019-05-10T19:41:47.856Z,91.36
2019-05-10T19:44:19.823Z,91.87
2019-05-10T19:46:51.467Z,91.60
2019-05-10T19:49:23.304Z,91.55
2019-05-10T19:51:54.794Z,91.78
2019-05-10T19:54:26.635Z,91.64
2019-05-10T19:56:58.298Z,91.54
2019-05-10T19:59:29.953Z,91.94
2019-05-10T20:02:01.613Z,91.62
2019-05-10T20:04:33.465Z,91.93
2019-05-10T20:07:05.136Z,92.13
2019-05-10T20:09:37.082Z,92.30
2019-05-10T20:12:08.738Z,92.18
2019-05-10T20:14:40.723Z,92.23
2019-05-10T20:17:12.450Z,92.58
2019-05-10T20:19:44.317Z,92.67
2019-05-10T20:22:16.706Z,93.02
2019-05-10T20:24:48.558Z,93.42
2019-05-10T20:27:20.447Z,92.75
2019-05-10T20:29:52.473Z,92.73
2019-05-10T20:32:25.257Z,92.14
2019-05-10T20:34:57.028Z,88.77
2019-05-10T20:37:28.560Z,88.67
2019-05-10T20:40:00.526Z,87.22
2019-05-10T20:42:32.398Z,87.63
2019-05-10T20:45:08.060Z,87.52
2019-05-10T20:47:38.774Z,85.27
2019-05-10T20:50:10.991Z,86.13
2019-05-10T20:52:42.502Z,85.43
2019-05-10T20:55:14.285Z,84.60
2019-05-10T20:57:45.910Z,85.33
2019-05-10T21:00:17.666Z,85.02
2019-05-10T21:02:49.016Z,84.74
2019-05-10T21:05:20.869Z,85.42
2019-05-10T21:07:52.222Z,84.88
2019-05-10T21:10:24.521Z,85.92
2019-05-10T21:12:55.915Z,87.72
2019-05-10T21:15:27.700Z,88.29
2019-05-10T21:17:59.472Z,88.93
2019-05-10T21:20:31.322Z,89.37
2019-05-10T21:23:03.281Z,89.72
2019-05-10T21:25:34.937Z,89.75
2019-05-10T21:28:06.591Z,86.84
2019-05-10T21:30:38.454Z,85.53
2019-05-10T21:33:10.213Z,86.53
2019-05-10T21:35:41.867Z,85.67
2019-05-10T21:38:13.517Z,85.68
2019-05-10T21:40:45.268Z,84.75
2019-05-10T21:43:16.822Z,86.85
2019-05-10T21:45:48.689Z,86.50
2019-05-10T21:48:20.545Z,86.80
2019-05-10T21:50:52.200Z,86.66
2019-05-10T21:53:23.863Z,86.96
2019-05-10T21:55:55.929Z,87.61
2019-05-10T21:58:27.687Z,87.19
2019-05-10T22:00:59.336Z,88.26
2019-05-10T22:03:31.807Z,88.33
2019-05-10T22:06:03.360Z,88.47
2019-05-10T22:08:48.452Z,87.75
2019-05-10T22:11:08.724Z,88.50
2019-05-10T22:13:40.371Z,88.93
2019-05-10T22:16:12.238Z,88.36
2019-05-10T22:18:43.784Z,88.65
2019-05-10T22:21:15.445Z,88.70
2019-05-10T22:23:47.305Z,88.64
2019-05-10T22:26:18.963Z,88.43
2019-05-10T22:28:50.721Z,89.17
2019-05-10T22:31:22.468Z,88.65
2019-05-10T22:33:53.928Z,88.17
2019-05-10T22:36:25.888Z,88.12
2019-05-10T22:39:06.543Z,88.26
2019-05-10T22:41:31.350Z,87.84
2019-05-10T22:44:03.502Z,87.09
2019-05-10T22:46:35.071Z,87.55
2019-05-10T22:49:06.413Z,87.74
2019-05-10T22:51:37.969Z,88.16
2019-05-10T22:54:09.623Z,87.86
2019-05-10T22:56:41.590Z,88.78
2019-05-10T22:59:13.043Z,88.53
2019-05-10T23:01:44.803Z,89.21
2019-05-10T23:04:16.658Z,89.49
2019-05-10T23:06:48.206Z,89.56
2019-05-10T23:09:24.803Z,88.49
2019-05-10T23:11:52.849Z,88.86
2019-05-10T23:14:24.400Z,89.04
2019-05-10T23:16:56.361Z,88.50
2019-05-10T23:19:27.813Z,88.57
2019-05-10T23:21:59.567Z,88.17
2019-05-10T23:24:38.910Z,88.40
2019-05-10T23:27:10.703Z,87.41
2019-05-10T23:29:42.222Z,86.79
2019-05-10T23:32:13.874Z,86.58
2019-05-10T23:34:45.537Z,87.40
2019-05-10T23:37:17.594Z,88.39
2019-05-10T23:39:49.354Z,88.84
2019-05-10T23:42:21.109Z,87.99
2019-05-10T23:44:52.801Z,88.43
2019-05-10T23:47:24.936Z,88.11
2019-05-10T23:49:56.793Z,87.35
2019-05-10T23:52:28.548Z,87.76
2019-05-10T23:54:59.997Z,87.50
2019-05-10T23:57:31.557Z,88.22
